createdAt,value
2023-05-08T00:00:43.234Z,5.82
2023-05-08T00:03:11.186Z,6.60
2023-05-08T00:05:39.135Z,6.07
2023-05-08T00:08:07.405Z,7.00
2023-05-08T00:10:35.515Z,8.52
2023-05-08T00:13:04.873Z,9.80
2023-05-08T00:15:32.908Z,10.68
2023-05-08T00:18:01.031Z,10.40
2023-05-08T00:20:29.028Z,10.50
2023-05-08T00:22:57.946Z,10.90
2023-05-08T00:25:26.040Z,11.60
2023-05-08T00:27:54.005Z,13.03
2023-05-08T00:30:23.644Z,13.88
2023-05-08T00:32:51.984Z,14.13
2023-05-08T00:35:20.140Z,13.60
2023-05-08T00:37:48.037Z,14.40
2023-05-08T00:40:16.123Z,15.77
2023-05-08T00:42:44.012Z,16.17
2023-05-08T00:45:12.697Z,16.90
2023-05-08T00:47:42.166Z,17.23
2023-05-08T00:50:11.949Z,18.50
2023-05-08T00:52:41.108Z,21.58
2023-05-08T00:55:09.683Z,23.17
2023-05-08T00:57:37.848Z,24.02
2023-05-08T01:00:07.678Z,24.98
2023-05-08T01:02:36.871Z,23.35
2023-05-08T01:05:07.596Z,23.80
2023-05-08T01:07:35.493Z,23.33
2023-05-08T01:10:03.474Z,23.90
2023-05-08T01:12:48.775Z,23.38
2023-05-08T01:15:19.973Z,24.83
2023-05-08T01:18:00.973Z,24.30
2023-05-08T01:20:40.887Z,28.58
2023-05-08T01:23:36.431Z,29.13
2023-05-08T01:26:37.702Z,26.05
2023-05-08T01:29:30.678Z,27.42
2023-05-08T01:32:15.627Z,27.70
2023-05-08T01:34:52.891Z,26.30
2023-05-08T01:37:28.328Z,28.00
2023-05-08T01:40:04.113Z,27.73
2023-05-08T01:42:43.013Z,26.48
2023-05-08T01:45:16.633Z,25.67
2023-05-08T01:47:49.917Z,28.85
2023-05-08T01:50:23.199Z,25.70
2023-05-08T01:52:58.195Z,26.83
2023-05-08T01:55:30.006Z,26.83
2023-05-08T01:58:00.651Z,25.40
2023-05-08T02:00:29.170Z,25.85
2023-05-08T02:03:00.061Z,23.10
2023-05-08T02:05:29.526Z,23.90
2023-05-08T02:07:58.216Z,24.75
2023-05-08T02:10:27.439Z,24.25
2023-05-08T02:12:57.095Z,26.55
2023-05-08T02:15:26.895Z,31.55
2023-05-08T02:17:56.361Z,29.10
2023-05-08T02:20:27.306Z,30.97
2023-05-08T02:22:55.630Z,37.60
2023-05-08T02:25:24.810Z,37.40
2023-05-08T02:27:54.886Z,35.70
2023-05-08T02:30:25.479Z,33.70
2023-05-08T02:32:55.251Z,36.33
2023-05-08T02:35:25.959Z,36.77
2023-05-08T02:37:56.404Z,37.10
2023-05-08T02:40:27.284Z,38.60
2023-05-08T02:42:56.021Z,38.13
2023-05-08T02:45:26.926Z,40.88
2023-05-08T02:48:08.401Z,40.33
2023-05-08T02:50:52.007Z,38.55
2023-05-08T02:53:25.328Z,40.25
2023-05-08T02:55:58.136Z,41.25
2023-05-08T02:58:33.132Z,42.20
2023-05-08T03:01:06.446Z,42.70
2023-05-08T03:03:39.109Z,43.53
2023-05-08T03:06:13.308Z,43.50
2023-05-08T03:08:43.021Z,45.53
2023-05-08T03:11:16.848Z,44.60
2023-05-08T03:13:47.804Z,47.92
2023-05-08T03:16:21.634Z,48.65
2023-05-08T03:18:54.379Z,49.97
2023-05-08T03:21:28.226Z,47.53
2023-05-08T03:23:58.408Z,49.55
2023-05-08T03:26:27.294Z,48.33
2023-05-08T03:28:57.499Z,49.90
2023-05-08T03:31:26.705Z,47.50
2023-05-08T03:33:55.583Z,49.50
2023-05-08T03:36:28.826Z,53.50
2023-05-08T03:38:56.875Z,51.42
2023-05-08T03:41:26.314Z,48.80
2023-05-08T03:43:54.909Z,50.70
2023-05-08T03:46:24.133Z,50.75
2023-05-08T03:48:54.240Z,47.83
2023-05-08T03:51:24.038Z,49.28
2023-05-08T03:53:51.944Z,50.37
2023-05-08T03:56:19.908Z,48.60
2023-05-08T03:58:55.826Z,52.35
2023-05-08T04:01:29.670Z,52.28
2023-05-08T04:04:07.805Z,52.13
2023-05-08T04:06:49.340Z,51.23
2023-05-08T04:09:21.588Z,51.45
2023-05-08T04:11:58.058Z,52.58
2023-05-08T04:14:28.590Z,51.25
2023-05-08T04:17:03.973Z,51.43
2023-05-08T04:19:37.846Z,50.58
2023-05-08T04:22:08.944Z,49.97
2023-05-08T04:24:41.815Z,49.47
2023-05-08T04:27:11.127Z,49.72
2023-05-08T04:29:39.139Z,48.60
2023-05-08T04:32:07.743Z,47.42
2023-05-08T04:34:36.389Z,46.70
2023-05-08T04:37:04.715Z,48.95
2023-05-08T04:39:33.987Z,48.80
2023-05-08T04:42:03.733Z,47.83
2023-05-08T04:44:32.198Z,48.97
2023-05-08T04:47:00.077Z,46.92
2023-05-08T04:49:27.955Z,48.30
2023-05-08T04:51:55.895Z,48.07
2023-05-08T04:54:23.868Z,45.92
2023-05-08T04:56:53.105Z,47.28
2023-05-08T04:59:21.058Z,47.03
2023-05-08T05:01:49.007Z,47.53
2023-05-08T05:04:16.952Z,45.65
2023-05-08T05:06:44.949Z,46.67
2023-05-08T05:09:12.851Z,43.50
2023-05-08T05:11:40.840Z,45.83
2023-05-08T05:14:10.167Z,43.60
2023-05-08T05:16:38.198Z,43.33
2023-05-08T05:19:06.244Z,43.30
2023-05-08T05:21:34.141Z,45.28
2023-05-08T05:24:02.052Z,45.00
2023-05-08T05:26:29.965Z,43.22
2023-05-08T05:28:58.410Z,41.63
2023-05-08T05:31:28.889Z,43.05
2023-05-08T05:33:56.805Z,43.80
2023-05-08T05:36:24.871Z,43.97
2023-05-08T05:38:52.781Z,42.50
2023-05-08T05:41:20.714Z,42.58
2023-05-08T05:43:48.710Z,43.63
2023-05-08T05:46:16.651Z,41.37
2023-05-08T05:48:45.927Z,42.67
2023-05-08T05:51:13.861Z,45.40
2023-05-08T05:53:41.785Z,42.88
2023-05-08T05:56:09.721Z,41.78
2023-05-08T05:58:37.629Z,44.70
2023-05-08T06:01:05.745Z,42.80
2023-05-08T06:03:33.728Z,43.63
2023-05-08T06:06:03.146Z,44.75
2023-05-08T06:08:31.049Z,46.13
2023-05-08T06:10:58.978Z,45.10
2023-05-08T06:13:26.932Z,45.42
2023-05-08T06:15:57.025Z,46.90
2023-05-08T06:18:25.217Z,44.83
2023-05-08T06:20:57.606Z,45.77
2023-05-08T06:23:27.006Z,45.00
2023-05-08T06:25:55.274Z,46.05
2023-05-08T06:28:25.847Z,46.45
2023-05-08T06:30:54.098Z,46.47
2023-05-08T06:33:23.571Z,45.28
2023-05-08T06:35:52.713Z,45.10
2023-05-08T06:38:20.619Z,45.08
2023-05-08T06:40:50.604Z,44.60
2023-05-08T06:43:18.483Z,42.97
2023-05-08T06:45:46.351Z,44.35
2023-05-08T06:48:14.484Z,44.25
2023-05-08T06:50:43.219Z,43.50
2023-05-08T06:53:11.230Z,41.60
2023-05-08T06:55:39.110Z,43.85
2023-05-08T06:58:08.529Z,41.40
2023-05-08T07:00:36.440Z,40.45
2023-05-08T07:03:04.599Z,41.30
2023-05-08T07:05:32.624Z,40.45
2023-05-08T07:08:00.520Z,39.92
2023-05-08T07:10:28.396Z,40.97
2023-05-08T07:12:56.316Z,41.22
2023-05-08T07:15:26.837Z,40.33
2023-05-08T07:17:55.458Z,41.60
2023-05-08T07:20:24.334Z,41.10
2023-05-08T07:22:52.296Z,40.47
2023-05-08T07:25:21.074Z,40.10
2023-05-08T07:27:49.202Z,39.00
2023-05-08T07:30:17.390Z,39.80
2023-05-08T07:32:46.658Z,41.42
2023-05-08T07:35:15.630Z,40.50
2023-05-08T07:37:43.802Z,43.00
2023-05-08T07:40:12.179Z,43.47
2023-05-08T07:42:41.650Z,44.55
2023-05-08T07:45:10.847Z,44.73
2023-05-08T07:47:38.926Z,46.67
2023-05-08T07:50:08.864Z,43.42
2023-05-08T07:52:36.744Z,44.60
2023-05-08T07:55:05.176Z,44.75
2023-05-08T07:57:38.500Z,45.17
2023-05-08T08:00:09.655Z,47.78
2023-05-08T08:02:38.259Z,49.30
2023-05-08T08:05:08.264Z,49.47
2023-05-08T08:07:36.426Z,48.58
2023-05-08T08:10:05.409Z,50.15
2023-05-08T08:12:33.477Z,49.70
2023-05-08T08:15:01.457Z,47.47
2023-05-08T08:17:29.515Z,47.67
2023-05-08T08:19:57.670Z,47.10
2023-05-08T08:22:27.488Z,46.45
2023-05-08T08:24:56.677Z,46.30
2023-05-08T08:27:24.764Z,41.85
2023-05-08T08:30:04.472Z,44.88
2023-05-08T08:32:41.411Z,40.40
2023-05-08T08:35:10.621Z,42.40
2023-05-08T08:37:40.050Z,39.20
2023-05-08T08:40:09.368Z,41.33
2023-05-08T08:42:37.412Z,42.40
2023-05-08T08:45:06.709Z,39.53
2023-05-08T08:47:38.226Z,37.58
2023-05-08T08:50:08.406Z,38.40
2023-05-08T08:52:44.375Z,35.75
2023-05-08T08:55:15.934Z,37.08
2023-05-08T08:57:52.539Z,35.45
2023-05-08T09:00:22.182Z,38.43
2023-05-08T09:02:50.289Z,38.38
2023-05-08T09:05:19.434Z,42.30
2023-05-08T09:07:49.470Z,39.35
2023-05-08T09:10:18.312Z,36.93
2023-05-08T09:12:46.314Z,38.50
2023-05-08T09:15:14.759Z,37.38
2023-05-08T09:17:42.901Z,38.10
2023-05-08T09:20:12.377Z,37.63
2023-05-08T09:22:40.621Z,38.13
2023-05-08T09:25:11.177Z,38.75
2023-05-08T09:27:39.362Z,37.20
2023-05-08T09:30:08.684Z,38.58
2023-05-08T09:32:38.049Z,36.15
2023-05-08T09:35:07.939Z,36.60
2023-05-08T09:37:39.266Z,35.03
2023-05-08T09:40:19.294Z,36.13
2023-05-08T09:42:48.662Z,34.42
2023-05-08T09:45:31.144Z,35.55
2023-05-08T09:47:59.597Z,35.83
2023-05-08T09:50:27.876Z,36.47
2023-05-08T09:52:56.084Z,36.77
2023-05-08T09:55:25.626Z,37.45
2023-05-08T09:57:55.994Z,37.67
2023-05-08T10:00:24.864Z,37.13
2023-05-08T10:02:57.619Z,38.80
2023-05-08T10:05:27.526Z,36.88
2023-05-08T10:07:56.455Z,36.78
2023-05-08T10:10:29.153Z,36.78
2023-05-08T10:12:58.883Z,35.15
2023-05-08T10:15:31.070Z,33.90
2023-05-08T10:18:05.280Z,33.87
2023-05-08T10:20:34.746Z,32.13
2023-05-08T10:23:03.953Z,31.00
2023-05-08T10:25:36.427Z,30.50
2023-05-08T10:28:14.483Z,30.85
2023-05-08T10:30:48.459Z,32.05
2023-05-08T10:33:21.065Z,30.30
2023-05-08T10:35:49.765Z,29.98
2023-05-08T10:38:18.284Z,28.10
2023-05-08T10:40:50.640Z,27.05
2023-05-08T10:43:19.786Z,29.17
2023-05-08T10:45:48.679Z,31.20
2023-05-08T10:48:27.531Z,30.98
2023-05-08T10:51:04.028Z,31.55
2023-05-08T10:53:39.960Z,30.77
2023-05-08T10:56:09.537Z,33.28
2023-05-08T10:58:39.482Z,31.67
2023-05-08T11:01:17.686Z,32.15
2023-05-08T11:03:47.890Z,33.45
2023-05-08T11:06:16.491Z,33.60
2023-05-08T11:08:51.921Z,31.13
2023-05-08T11:11:29.574Z,32.15
2023-05-08T11:14:10.530Z,30.93
2023-05-08T11:17:10.523Z,30.48
2023-05-08T11:19:39.471Z,30.40
2023-05-08T11:22:28.906Z,33.65
2023-05-08T11:24:59.069Z,32.47
2023-05-08T11:28:02.097Z,32.33
2023-05-08T11:30:38.394Z,30.35
2023-05-08T11:33:17.212Z,30.23
2023-05-08T11:35:53.886Z,28.23
2023-05-08T11:38:24.729Z,28.73
2023-05-08T11:41:00.717Z,28.73
2023-05-08T11:44:14.845Z,27.70
2023-05-08T11:46:45.150Z,27.35
2023-05-08T11:49:15.460Z,27.23
2023-05-08T11:51:45.270Z,25.10
2023-05-08T11:54:17.835Z,27.67
2023-05-08T11:56:48.104Z,24.83
2023-05-08T11:59:17.828Z,24.87
2023-05-08T12:01:53.616Z,24.63
2023-05-08T12:04:28.487Z,22.60
2023-05-08T12:06:59.873Z,21.80
2023-05-08T12:09:28.307Z,23.35
2023-05-08T12:11:59.028Z,21.42
2023-05-08T12:14:28.464Z,22.85
2023-05-08T12:16:56.526Z,21.83
2023-05-08T12:19:24.550Z,21.17
2023-05-08T12:21:52.606Z,21.50
2023-05-08T12:24:23.218Z,20.92
2023-05-08T12:26:54.344Z,21.02
2023-05-08T12:29:22.931Z,19.88
2023-05-08T12:31:52.919Z,20.08
2023-05-08T12:34:21.474Z,19.80
2023-05-08T12:36:51.227Z,20.70
2023-05-08T12:39:20.016Z,20.37
2023-05-08T12:41:48.872Z,19.85
2023-05-08T12:44:21.305Z,18.83
2023-05-08T12:46:52.823Z,19.70
2023-05-08T12:49:28.629Z,18.97
2023-05-08T12:52:07.118Z,19.17
2023-05-08T12:54:39.845Z,18.40
2023-05-08T12:57:12.204Z,18.33
2023-05-08T12:59:40.644Z,18.38
2023-05-08T13:02:15.672Z,17.58
2023-05-08T13:04:43.798Z,17.80
2023-05-08T13:07:12.317Z,17.52
2023-05-08T13:09:41.026Z,17.50
2023-05-08T13:12:09.499Z,17.90
2023-05-08T13:14:37.453Z,17.90
2023-05-08T13:17:05.412Z,17.20
2023-05-08T13:19:35.205Z,18.17
2023-05-08T13:22:03.112Z,18.90
2023-05-08T13:24:31.087Z,19.33
2023-05-08T13:26:59.053Z,19.30
2023-05-08T13:29:26.988Z,18.92
2023-05-08T13:31:55.027Z,20.10
2023-05-08T13:34:22.992Z,20.60
2023-05-08T13:36:52.367Z,21.52
2023-05-08T13:39:20.711Z,21.10
2023-05-08T13:41:48.654Z,21.58
2023-05-08T13:44:16.520Z,22.47
2023-05-08T13:46:44.463Z,22.15
2023-05-08T13:49:12.433Z,22.40
2023-05-08T13:51:40.274Z,23.20
2023-05-08T13:54:09.520Z,23.30
2023-05-08T13:56:37.558Z,24.05
2023-05-08T13:59:05.469Z,23.15
2023-05-08T14:01:33.401Z,23.25
2023-05-08T14:04:01.310Z,25.40
2023-05-08T14:06:29.271Z,25.00
2023-05-08T14:08:57.473Z,28.83
2023-05-08T14:11:27.169Z,28.77
2023-05-08T14:13:55.052Z,29.27
2023-05-08T14:16:23.197Z,29.00
2023-05-08T14:18:51.169Z,29.55
2023-05-08T14:21:19.529Z,32.47
2023-05-08T14:23:47.453Z,33.63
2023-05-08T14:26:15.461Z,37.08
2023-05-08T14:28:44.690Z,38.50
2023-05-08T14:31:12.613Z,41.83
2023-05-08T14:33:40.540Z,48.85
2023-05-08T14:36:09.358Z,51.87
2023-05-08T14:38:37.246Z,55.85
2023-05-08T14:41:05.229Z,61.70
2023-05-08T14:43:33.340Z,59.17
2023-05-08T14:46:02.665Z,63.78
2023-05-08T14:48:30.634Z,60.35
2023-05-08T14:50:58.893Z,61.40
2023-05-08T14:53:27.020Z,64.00
2023-05-08T14:55:55.296Z,66.57
2023-05-08T14:58:23.687Z,65.82
2023-05-08T15:00:51.665Z,68.68
2023-05-08T15:03:21.154Z,65.50
2023-05-08T15:05:49.154Z,65.00
2023-05-08T15:08:17.364Z,64.63
2023-05-08T15:10:45.376Z,61.97
2023-05-08T15:13:13.509Z,62.50
2023-05-08T15:15:41.480Z,59.38
2023-05-08T15:18:09.394Z,59.73
2023-05-08T15:20:38.663Z,56.97
2023-05-08T15:23:06.674Z,55.42
2023-05-08T15:25:34.668Z,53.95
2023-05-08T15:28:02.618Z,54.67
2023-05-08T15:30:30.511Z,51.47
2023-05-08T15:32:58.453Z,50.45
2023-05-08T15:35:26.671Z,47.08
2023-05-08T15:37:55.911Z,47.50
2023-05-08T15:40:23.884Z,46.70
2023-05-08T15:42:51.758Z,45.13
2023-05-08T15:45:19.760Z,42.67
2023-05-08T15:47:47.923Z,43.17
2023-05-08T15:50:15.966Z,43.88
2023-05-08T15:52:43.915Z,45.53
2023-05-08T15:55:13.524Z,46.00
2023-05-08T15:57:41.689Z,46.60
2023-05-08T16:00:10.782Z,48.13
2023-05-08T16:02:38.802Z,48.00
2023-05-08T16:05:07.376Z,46.97
2023-05-08T16:07:35.356Z,48.78
2023-05-08T16:10:05.233Z,49.00
2023-05-08T16:12:35.339Z,47.45
2023-05-08T16:15:03.192Z,48.92
2023-05-08T16:17:31.145Z,48.42
2023-05-08T16:20:00.609Z,47.80
2023-05-08T16:22:28.607Z,50.70
2023-05-08T16:24:56.645Z,48.40
2023-05-08T16:27:24.540Z,47.35
2023-05-08T16:29:53.830Z,48.03
2023-05-08T16:32:21.779Z,48.93
2023-05-08T16:34:49.639Z,48.90
2023-05-08T16:37:17.513Z,48.72
2023-05-08T16:39:47.267Z,49.17
2023-05-08T16:42:15.177Z,48.50
2023-05-08T16:44:43.008Z,46.05
2023-05-08T16:47:12.476Z,45.85
2023-05-08T16:49:40.539Z,45.65
2023-05-08T16:52:08.474Z,46.57
2023-05-08T16:54:36.400Z,45.05
2023-05-08T16:57:04.533Z,44.65
2023-05-08T16:59:32.596Z,44.33
2023-05-08T17:02:00.407Z,44.78
2023-05-08T17:04:30.891Z,45.50
2023-05-08T17:06:59.928Z,42.47
2023-05-08T17:09:28.509Z,41.05
2023-05-08T17:11:58.072Z,40.42
2023-05-08T17:14:26.159Z,41.05
2023-05-08T17:16:54.102Z,40.08
2023-05-08T17:19:22.164Z,40.35
2023-05-08T17:21:51.518Z,39.22
2023-05-08T17:24:20.177Z,39.03
2023-05-08T17:26:48.128Z,37.55
2023-05-08T17:29:16.032Z,37.00
2023-05-08T17:31:44.031Z,34.80
2023-05-08T17:34:11.970Z,35.47
2023-05-08T17:36:39.936Z,33.70
2023-05-08T17:39:09.220Z,32.65
2023-05-08T17:41:37.119Z,33.50
2023-05-08T17:44:05.335Z,31.75
2023-05-08T17:46:33.269Z,32.95
2023-05-08T17:49:01.161Z,31.90
2023-05-08T17:51:29.074Z,31.15
2023-05-08T17:53:57.178Z,31.87
2023-05-08T17:56:26.646Z,30.67
2023-05-08T17:58:58.195Z,31.15
2023-05-08T18:01:26.533Z,31.13
2023-05-08T18:03:54.701Z,29.45
2023-05-08T18:06:22.723Z,30.87
2023-05-08T18:08:50.627Z,29.52
2023-05-08T18:11:19.268Z,27.95
2023-05-08T18:13:48.981Z,28.52
2023-05-08T18:16:18.514Z,27.83
2023-05-08T18:18:46.770Z,28.23
2023-05-08T18:21:15.114Z,29.67
2023-05-08T18:23:43.137Z,30.77
2023-05-08T18:26:14.592Z,32.50
2023-05-08T18:28:42.537Z,33.13
2023-05-08T18:31:12.079Z,35.10
2023-05-08T18:33:40.206Z,34.23
2023-05-08T18:36:08.344Z,36.45
2023-05-08T18:38:36.584Z,37.33
2023-05-08T18:41:05.043Z,35.38
2023-05-08T18:43:32.908Z,36.42
2023-05-08T18:46:00.883Z,36.75
2023-05-08T18:48:30.237Z,37.28
2023-05-08T18:50:58.603Z,34.85
2023-05-08T18:53:26.871Z,35.38
2023-05-08T18:55:54.799Z,34.00
2023-05-08T18:58:22.781Z,35.15
2023-05-08T19:00:50.714Z,34.28
2023-05-08T19:03:19.192Z,34.72
2023-05-08T19:05:48.490Z,33.22
2023-05-08T19:08:16.616Z,32.27
2023-05-08T19:10:44.678Z,31.05
2023-05-08T19:13:12.663Z,30.67
2023-05-08T19:15:40.669Z,29.85
2023-05-08T19:18:09.029Z,29.85
2023-05-08T19:20:37.060Z,27.80
2023-05-08T19:23:06.357Z,28.93
2023-05-08T19:25:34.338Z,29.00
2023-05-08T19:28:03.981Z,27.45
2023-05-08T19:30:32.033Z,26.58
2023-05-08T19:32:59.970Z,27.33
2023-05-08T19:35:27.936Z,25.95
2023-05-08T19:37:55.865Z,25.48
2023-05-08T19:40:25.279Z,25.17
2023-05-08T19:42:53.199Z,23.00
2023-05-08T19:45:21.183Z,23.83
2023-05-08T19:47:49.549Z,23.88
2023-05-08T19:50:18.814Z,23.55
2023-05-08T19:52:48.460Z,23.30
2023-05-08T19:55:16.743Z,23.27
2023-05-08T19:57:46.164Z,23.10
2023-05-08T20:00:14.461Z,21.17
2023-05-08T20:02:42.610Z,21.25
2023-05-08T20:05:21.657Z,21.37
2023-05-08T20:07:50.186Z,21.85
2023-05-08T20:10:18.112Z,22.10
2023-05-08T20:12:47.525Z,21.33
2023-05-08T20:15:15.660Z,20.80
2023-05-08T20:17:43.653Z,20.95
2023-05-08T20:20:12.965Z,22.35
2023-05-08T20:22:41.052Z,21.15
2023-05-08T20:25:09.472Z,23.05
2023-05-08T20:27:37.387Z,20.88
2023-05-08T20:30:07.934Z,22.63
2023-05-08T20:32:35.930Z,23.13
2023-05-08T20:35:04.197Z,23.20
2023-05-08T20:37:32.087Z,23.42
2023-05-08T20:40:00.007Z,23.00
2023-05-08T20:42:27.997Z,22.83
2023-05-08T20:44:55.964Z,21.90
2023-05-08T20:47:25.306Z,23.73
2023-05-08T20:49:53.235Z,24.17
2023-05-08T20:52:21.250Z,24.40
2023-05-08T20:54:50.367Z,24.25
2023-05-08T20:57:18.712Z,24.88
2023-05-08T20:59:47.234Z,25.77
2023-05-08T21:02:15.237Z,26.50
2023-05-08T21:04:44.606Z,25.90
2023-05-08T21:07:12.596Z,27.23
2023-05-08T21:09:40.560Z,26.95
2023-05-08T21:12:09.815Z,27.27
2023-05-08T21:14:37.987Z,27.27
2023-05-08T21:17:06.038Z,26.67
2023-05-08T21:19:34.006Z,27.05
2023-05-08T21:22:03.312Z,27.13
2023-05-08T21:24:31.375Z,26.20
2023-05-08T21:26:59.743Z,25.75
2023-05-08T21:29:27.767Z,24.85
2023-05-08T21:31:56.175Z,25.27
2023-05-08T21:34:24.153Z,23.67
2023-05-08T21:36:52.004Z,25.20
2023-05-08T21:39:21.171Z,25.52
2023-05-08T21:41:49.081Z,24.77
2023-05-08T21:44:16.918Z,25.08
2023-05-08T21:46:44.938Z,23.73
2023-05-08T21:49:12.881Z,23.77
2023-05-08T21:51:40.756Z,22.73
2023-05-08T21:54:09.864Z,23.00
2023-05-08T21:56:39.199Z,21.75
2023-05-08T21:59:08.165Z,23.33
2023-05-08T22:01:36.193Z,21.70
2023-05-08T22:04:04.127Z,21.45
2023-05-08T22:06:33.011Z,20.23
2023-05-08T22:09:00.902Z,19.80
2023-05-08T22:11:28.836Z,21.25
2023-05-08T22:13:58.087Z,20.30
2023-05-08T22:16:26.046Z,19.85
2023-05-08T22:18:53.968Z,19.13
2023-05-08T22:21:21.850Z,19.88
2023-05-08T22:23:49.769Z,19.73
2023-05-08T22:26:17.621Z,19.30
2023-05-08T22:28:45.455Z,19.65
2023-05-08T22:31:14.726Z,19.77
2023-05-08T22:33:42.540Z,19.63
2023-05-08T22:36:11.012Z,20.48
2023-05-08T22:38:40.220Z,20.00
2023-05-08T22:41:08.220Z,20.30
2023-05-08T22:43:36.878Z,19.85
2023-05-08T22:46:05.170Z,19.92
2023-05-08T22:48:34.812Z,20.23
2023-05-08T22:51:03.035Z,20.30
2023-05-08T22:53:30.973Z,21.48
2023-05-08T22:55:58.846Z,19.02
2023-05-08T22:58:27.234Z,21.88
2023-05-08T23:00:55.657Z,20.60
2023-05-08T23:03:23.731Z,22.15
2023-05-08T23:05:53.005Z,21.80
2023-05-08T23:08:22.121Z,22.65
2023-05-08T23:10:50.110Z,22.23
2023-05-08T23:13:18.158Z,23.58
2023-05-08T23:15:46.097Z,23.70
2023-05-08T23:18:14.028Z,23.65
2023-05-08T23:20:41.958Z,24.58
2023-05-08T23:23:11.208Z,24.33
2023-05-08T23:25:39.082Z,24.13
2023-05-08T23:28:07.173Z,25.95
2023-05-08T23:30:35.112Z,25.30
2023-05-08T23:33:03.058Z,26.10
2023-05-08T23:35:31.050Z,25.73
2023-05-08T23:37:58.987Z,26.92
2023-05-08T23:40:28.388Z,26.75
2023-05-08T23:42:56.554Z,27.40
2023-05-08T23:45:24.401Z,26.33
2023-05-08T23:47:52.288Z,26.60
2023-05-08T23:50:20.423Z,28.70
2023-05-08T23:52:48.296Z,29.90
2023-05-08T23:55:16.285Z,29.77
2023-05-08T23:57:45.590Z,30.63
